Terminal Aerodrome Forecast
Issued by NWS Jackson, KY

Home | Current Version | Previous Version | Text Only | Print | Product List | Glossary On
Versions: 1 2 3 4 5 6 7 8 9 10 11 12 13 14 15 16 17
000
FTUS43 KJKL 171138
TAFJKL
TAF
KJKL 171138Z 1712/1812 VRB03KT P6SM SCT120
     FM171500 VRB04KT P6SM VCSH SCT025 BKN070
     FM172000 VRB04KT P6SM VCTS SCT040CB BKN150
     FM180200 VRB03KT P6SM BKN200=

USA.gov is the U.S. government's official web portal to all federal, state and local government web resources and services.